sensor_id;sensor_type;location;lat;lon;timestamp;P1;durP1;ratioP1;P2;durP2;ratioP2
61358;SDS011;47228;46.762;23.598;2022-11-15T00:01:15;20.60;;;13.90;;
61358;SDS011;47228;46.762;23.598;2022-11-15T00:06:13;22.20;;;14.80;;
61358;SDS011;47228;46.762;23.598;2022-11-15T00:08:44;21.60;;;14.00;;
61358;SDS011;47228;46.762;23.598;2022-11-15T00:11:12;23.50;;;14.50;;
61358;SDS011;47228;46.762;23.598;2022-11-15T00:13:40;19.80;;;13.10;;
61358;SDS011;47228;46.762;23.598;2022-11-15T00:16:08;18.00;;;11.50;;
61358;SDS011;47228;46.762;23.598;2022-11-15T00:18:38;17.30;;;11.90;;
61358;SDS011;47228;46.762;23.598;2022-11-15T00:21:07;17.20;;;12.00;;
61358;SDS011;47228;46.762;23.598;2022-11-15T00:23:37;20.30;;;12.80;;
61358;SDS011;47228;46.762;23.598;2022-11-15T00:26:05;21.80;;;14.00;;
61358;SDS011;47228;46.762;23.598;2022-11-15T00:28:34;23.40;;;14.70;;
61358;SDS011;47228;46.762;23.598;2022-11-15T00:31:06;22.20;;;14.10;;
61358;SDS011;47228;46.762;23.598;2022-11-15T00:33:36;22.60;;;13.80;;
61358;SDS011;47228;46.762;23.598;2022-11-15T00:36:05;20.10;;;13.50;;
61358;SDS011;47228;46.762;23.598;2022-11-15T00:38:37;20.40;;;13.90;;
61358;SDS011;47228;46.762;23.598;2022-11-15T00:41:07;19.00;;;13.20;;
61358;SDS011;47228;46.762;23.598;2022-11-15T00:43:36;21.70;;;13.60;;
61358;SDS011;47228;46.762;23.598;2022-11-15T00:46:07;18.80;;;12.40;;
61358;SDS011;47228;46.762;23.598;2022-11-15T00:48:37;19.90;;;12.30;;
61358;SDS011;47228;46.762;23.598;2022-11-15T00:51:05;18.40;;;13.00;;
61358;SDS011;47228;46.762;23.598;2022-11-15T00:53:33;19.30;;;12.40;;
61358;SDS011;47228;46.762;23.598;2022-11-15T00:56:01;21.50;;;13.70;;
61358;SDS011;47228;46.762;23.598;2022-11-15T00:58:29;22.40;;;14.00;;
61358;SDS011;47228;46.762;23.598;2022-11-15T01:01:05;19.90;;;13.00;;
61358;SDS011;47228;46.762;23.598;2022-11-15T01:03:34;21.30;;;13.70;;
61358;SDS011;47228;46.762;23.598;2022-11-15T01:06:03;22.60;;;13.90;;
61358;SDS011;47228;46.762;23.598;2022-11-15T01:08:32;20.40;;;13.30;;
61358;SDS011;47228;46.762;23.598;2022-11-15T01:11:04;21.20;;;13.70;;
61358;SDS011;47228;46.762;23.598;2022-11-15T01:13:34;23.60;;;15.00;;
61358;SDS011;47228;46.762;23.598;2022-11-15T01:16:07;21.40;;;13.90;;
61358;SDS011;47228;46.762;23.598;2022-11-15T01:18:44;20.20;;;12.60;;
61358;SDS011;47228;46.762;23.598;2022-11-15T01:21:14;12.30;;;5.90;;
61358;SDS011;47228;46.762;23.598;2022-11-15T01:23:44;19.20;;;12.80;;
61358;SDS011;47228;46.762;23.598;2022-11-15T01:26:14;21.70;;;13.90;;
61358;SDS011;47228;46.762;23.598;2022-11-15T01:28:42;22.40;;;14.10;;
61358;SDS011;47228;46.762;23.598;2022-11-15T01:31:15;20.60;;;13.50;;
61358;SDS011;47228;46.762;23.598;2022-11-15T01:36:19;21.10;;;13.30;;
61358;SDS011;47228;46.762;23.598;2022-11-15T01:38:55;20.90;;;13.60;;
61358;SDS011;47228;46.762;23.598;2022-11-15T01:41:25;20.90;;;14.00;;
61358;SDS011;47228;46.762;23.598;2022-11-15T01:43:56;19.60;;;12.60;;
61358;SDS011;47228;46.762;23.598;2022-11-15T01:46:33;17.20;;;11.70;;
61358;SDS011;47228;46.762;23.598;2022-11-15T01:49:05;18.50;;;12.50;;
61358;SDS011;47228;46.762;23.598;2022-11-15T01:51:42;19.00;;;13.00;;
61358;SDS011;47228;46.762;23.598;2022-11-15T01:54:11;22.80;;;14.30;;
61358;SDS011;47228;46.762;23.598;2022-11-15T01:56:47;21.70;;;14.00;;
61358;SDS011;47228;46.762;23.598;2022-11-15T01:59:21;21.20;;;13.60;;
61358;SDS011;47228;46.762;23.598;2022-11-15T02:01:50;20.30;;;13.50;;
61358;SDS011;47228;46.762;23.598;2022-11-15T02:04:28;22.60;;;14.00;;
61358;SDS011;47228;46.762;23.598;2022-11-15T02:06:59;22.90;;;14.90;;
61358;SDS011;47228;46.762;23.598;2022-11-15T02:09:30;20.00;;;13.50;;
61358;SDS011;47228;46.762;23.598;2022-11-15T02:11:58;24.20;;;14.80;;
61358;SDS011;47228;46.762;23.598;2022-11-15T02:14:27;30.90;;;17.60;;
61358;SDS011;47228;46.762;23.598;2022-11-15T02:22:46;31.10;;;19.00;;
61358;SDS011;47228;46.762;23.598;2022-11-15T02:33:41;33.00;;;20.90;;
61358;SDS011;47228;46.762;23.598;2022-11-15T02:42:26;32.90;;;21.10;;
61358;SDS011;47228;46.762;23.598;2022-11-15T02:45:35;35.00;;;19.60;;
61358;SDS011;47228;46.762;23.598;2022-11-15T02:48:07;24.80;;;15.60;;
61358;SDS011;47228;46.762;23.598;2022-11-15T02:50:37;26.50;;;15.70;;
61358;SDS011;47228;46.762;23.598;2022-11-15T02:53:06;26.00;;;16.50;;
61358;SDS011;47228;46.762;23.598;2022-11-15T02:55:36;23.60;;;15.40;;
61358;SDS011;47228;46.762;23.598;2022-11-15T03:12:12;18.50;;;12.20;;
61358;SDS011;47228;46.762;23.598;2022-11-15T03:14:54;18.30;;;12.70;;
61358;SDS011;47228;46.762;23.598;2022-11-15T03:17:23;17.20;;;11.30;;
61358;SDS011;47228;46.762;23.598;2022-11-15T03:20:01;15.30;;;10.00;;
61358;SDS011;47228;46.762;23.598;2022-11-15T03:22:37;16.00;;;10.90;;
61358;SDS011;47228;46.762;23.598;2022-11-15T03:25:08;14.80;;;10.00;;
61358;SDS011;47228;46.762;23.598;2022-11-15T03:27:42;15.50;;;10.00;;
61358;SDS011;47228;46.762;23.598;2022-11-15T03:30:15;13.80;;;10.30;;
61358;SDS011;47228;46.762;23.598;2022-11-15T03:32:46;17.40;;;10.90;;
61358;SDS011;47228;46.762;23.598;2022-11-15T03:40:25;23.40;;;15.10;;
61358;SDS011;47228;46.762;23.598;2022-11-15T03:43:15;20.00;;;13.90;;
61358;SDS011;47228;46.762;23.598;2022-11-15T03:45:51;20.10;;;13.20;;
61358;SDS011;47228;46.762;23.598;2022-11-15T03:48:34;16.50;;;11.00;;
61358;SDS011;47228;46.762;23.598;2022-11-15T03:51:07;17.20;;;11.70;;
61358;SDS011;47228;46.762;23.598;2022-11-15T03:53:36;14.80;;;9.80;;
61358;SDS011;47228;46.762;23.598;2022-11-15T03:56:04;16.90;;;11.80;;
61358;SDS011;47228;46.762;23.598;2022-11-15T03:58:32;16.30;;;10.40;;
61358;SDS011;47228;46.762;23.598;2022-11-15T04:00:59;20.20;;;13.40;;
61358;SDS011;47228;46.762;23.598;2022-11-15T04:03:27;15.40;;;10.60;;
61358;SDS011;47228;46.762;23.598;2022-11-15T04:05:56;14.20;;;9.60;;
61358;SDS011;47228;46.762;23.598;2022-11-15T04:08:24;17.00;;;10.30;;
61358;SDS011;47228;46.762;23.598;2022-11-15T04:10:52;19.00;;;12.00;;
61358;SDS011;47228;46.762;23.598;2022-11-15T04:13:20;15.30;;;10.90;;
61358;SDS011;47228;46.762;23.598;2022-11-15T04:15:48;14.20;;;9.90;;
61358;SDS011;47228;46.762;23.598;2022-11-15T04:18:16;17.10;;;10.60;;
61358;SDS011;47228;46.762;23.598;2022-11-15T04:20:44;15.70;;;11.00;;
61358;SDS011;47228;46.762;23.598;2022-11-15T04:23:30;16.10;;;10.90;;
61358;SDS011;47228;46.762;23.598;2022-11-15T04:26:18;17.80;;;11.90;;
61358;SDS011;47228;46.762;23.598;2022-11-15T04:28:48;19.80;;;12.50;;
61358;SDS011;47228;46.762;23.598;2022-11-15T04:31:35;18.50;;;12.60;;
61358;SDS011;47228;46.762;23.598;2022-11-15T04:34:03;18.90;;;12.20;;
61358;SDS011;47228;46.762;23.598;2022-11-15T04:36:31;17.10;;;11.00;;
61358;SDS011;47228;46.762;23.598;2022-11-15T04:39:18;14.90;;;10.40;;
61358;SDS011;47228;46.762;23.598;2022-11-15T04:41:46;14.60;;;9.80;;
61358;SDS011;47228;46.762;23.598;2022-11-15T04:44:13;15.00;;;10.20;;
61358;SDS011;47228;46.762;23.598;2022-11-15T04:46:41;16.70;;;10.20;;
61358;SDS011;47228;46.762;23.598;2022-11-15T04:49:09;19.00;;;11.80;;
61358;SDS011;47228;46.762;23.598;2022-11-15T04:51:37;16.10;;;10.90;;
61358;SDS011;47228;46.762;23.598;2022-11-15T04:54:05;15.40;;;10.70;;
61358;SDS011;47228;46.762;23.598;2022-11-15T04:56:33;17.00;;;10.60;;
61358;SDS011;47228;46.762;23.598;2022-11-15T04:59:01;17.10;;;11.00;;
61358;SDS011;47228;46.762;23.598;2022-11-15T05:01:29;17.10;;;11.30;;
61358;SDS011;47228;46.762;23.598;2022-11-15T05:03:58;18.80;;;11.20;;
61358;SDS011;47228;46.762;23.598;2022-11-15T05:06:45;16.50;;;11.30;;
61358;SDS011;47228;46.762;23.598;2022-11-15T05:09:17;15.40;;;10.20;;
61358;SDS011;47228;46.762;23.598;2022-11-15T05:11:46;16.50;;;11.20;;
61358;SDS011;47228;46.762;23.598;2022-11-15T05:14:15;16.40;;;10.90;;
61358;SDS011;47228;46.762;23.598;2022-11-15T05:16:44;12.90;;;9.40;;
61358;SDS011;47228;46.762;23.598;2022-11-15T05:19:11;16.90;;;10.70;;
61358;SDS011;47228;46.762;23.598;2022-11-15T05:21:39;16.00;;;10.90;;
61358;SDS011;47228;46.762;23.598;2022-11-15T05:24:09;15.60;;;10.50;;
61358;SDS011;47228;46.762;23.598;2022-11-15T05:26:38;15.90;;;10.00;;
61358;SDS011;47228;46.762;23.598;2022-11-15T05:29:08;16.40;;;10.40;;
61358;SDS011;47228;46.762;23.598;2022-11-15T05:31:39;15.80;;;10.50;;
61358;SDS011;47228;46.762;23.598;2022-11-15T05:34:08;16.70;;;11.00;;
61358;SDS011;47228;46.762;23.598;2022-11-15T05:36:38;16.80;;;11.20;;
61358;SDS011;47228;46.762;23.598;2022-11-15T05:39:10;19.40;;;12.30;;
61358;SDS011;47228;46.762;23.598;2022-11-15T05:41:44;17.40;;;11.70;;
61358;SDS011;47228;46.762;23.598;2022-11-15T05:44:17;16.20;;;10.70;;
61358;SDS011;47228;46.762;23.598;2022-11-15T05:46:51;22.20;;;12.80;;
61358;SDS011;47228;46.762;23.598;2022-11-15T05:49:23;22.30;;;13.20;;
61358;SDS011;47228;46.762;23.598;2022-11-15T05:51:54;22.90;;;13.80;;
61358;SDS011;47228;46.762;23.598;2022-11-15T05:54:22;21.80;;;14.50;;
61358;SDS011;47228;46.762;23.598;2022-11-15T05:56:51;20.00;;;11.70;;
61358;SDS011;47228;46.762;23.598;2022-11-15T05:59:20;20.30;;;11.90;;
61358;SDS011;47228;46.762;23.598;2022-11-15T06:01:48;18.70;;;11.70;;
61358;SDS011;47228;46.762;23.598;2022-11-15T06:04:16;29.30;;;16.50;;
61358;SDS011;47228;46.762;23.598;2022-11-15T06:06:44;23.00;;;13.70;;
61358;SDS011;47228;46.762;23.598;2022-11-15T06:09:12;24.10;;;14.80;;
61358;SDS011;47228;46.762;23.598;2022-11-15T06:11:40;20.80;;;12.70;;
61358;SDS011;47228;46.762;23.598;2022-11-15T06:14:08;23.10;;;14.50;;
61358;SDS011;47228;46.762;23.598;2022-11-15T06:16:35;26.00;;;15.10;;
61358;SDS011;47228;46.762;23.598;2022-11-15T06:19:05;27.90;;;15.30;;
61358;SDS011;47228;46.762;23.598;2022-11-15T06:21:34;33.70;;;18.60;;
61358;SDS011;47228;46.762;23.598;2022-11-15T06:24:01;42.70;;;20.80;;
61358;SDS011;47228;46.762;23.598;2022-11-15T06:26:30;39.90;;;20.80;;
61358;SDS011;47228;46.762;23.598;2022-11-15T06:28:58;41.20;;;20.70;;
61358;SDS011;47228;46.762;23.598;2022-11-15T06:31:26;37.10;;;20.00;;
61358;SDS011;47228;46.762;23.598;2022-11-15T06:33:53;51.40;;;22.90;;
61358;SDS011;47228;46.762;23.598;2022-11-15T06:36:21;44.90;;;22.70;;
61358;SDS011;47228;46.762;23.598;2022-11-15T06:38:49;43.20;;;20.90;;
61358;SDS011;47228;46.762;23.598;2022-11-15T06:41:18;43.90;;;23.10;;
61358;SDS011;47228;46.762;23.598;2022-11-15T06:43:48;42.60;;;22.90;;
61358;SDS011;47228;46.762;23.598;2022-11-15T06:46:16;43.70;;;22.80;;
61358;SDS011;47228;46.762;23.598;2022-11-15T06:48:44;51.00;;;23.80;;
61358;SDS011;47228;46.762;23.598;2022-11-15T06:51:12;46.30;;;22.80;;
61358;SDS011;47228;46.762;23.598;2022-11-15T06:53:40;52.70;;;24.10;;
61358;SDS011;47228;46.762;23.598;2022-11-15T06:56:07;46.10;;;23.80;;
61358;SDS011;47228;46.762;23.598;2022-11-15T06:58:36;54.60;;;24.20;;
61358;SDS011;47228;46.762;23.598;2022-11-15T07:01:05;54.10;;;22.90;;
61358;SDS011;47228;46.762;23.598;2022-11-15T07:03:39;49.80;;;23.90;;
61358;SDS011;47228;46.762;23.598;2022-11-15T07:06:08;42.00;;;20.80;;
61358;SDS011;47228;46.762;23.598;2022-11-15T07:08:37;39.20;;;20.00;;
61358;SDS011;47228;46.762;23.598;2022-11-15T07:11:06;42.40;;;23.10;;
61358;SDS011;47228;46.762;23.598;2022-11-15T07:13:35;47.50;;;21.60;;
61358;SDS011;47228;46.762;23.598;2022-11-15T07:16:05;41.70;;;21.70;;
61358;SDS011;47228;46.762;23.598;2022-11-15T07:18:35;44.20;;;20.80;;
61358;SDS011;47228;46.762;23.598;2022-11-15T07:21:05;33.20;;;18.50;;
61358;SDS011;47228;46.762;23.598;2022-11-15T07:23:37;40.70;;;21.70;;
61358;SDS011;47228;46.762;23.598;2022-11-15T07:26:06;41.00;;;20.90;;
61358;SDS011;47228;46.762;23.598;2022-11-15T07:28:36;33.20;;;18.00;;
61358;SDS011;47228;46.762;23.598;2022-11-15T07:31:05;30.70;;;17.00;;
61358;SDS011;47228;46.762;23.598;2022-11-15T07:33:34;28.60;;;16.70;;
61358;SDS011;47228;46.762;23.598;2022-11-15T07:36:03;28.10;;;16.10;;
61358;SDS011;47228;46.762;23.598;2022-11-15T07:38:33;28.10;;;14.60;;
61358;SDS011;47228;46.762;23.598;2022-11-15T07:41:12;30.50;;;17.10;;
61358;SDS011;47228;46.762;23.598;2022-11-15T07:46:11;27.70;;;16.90;;
61358;SDS011;47228;46.762;23.598;2022-11-15T07:48:48;25.10;;;15.00;;
61358;SDS011;47228;46.762;23.598;2022-11-15T07:51:16;27.10;;;14.00;;
61358;SDS011;47228;46.762;23.598;2022-11-15T07:53:44;28.30;;;15.10;;
61358;SDS011;47228;46.762;23.598;2022-11-15T07:56:12;34.70;;;18.60;;
61358;SDS011;47228;46.762;23.598;2022-11-15T07:58:41;31.40;;;18.50;;
61358;SDS011;47228;46.762;23.598;2022-11-15T08:01:09;39.60;;;20.00;;
61358;SDS011;47228;46.762;23.598;2022-11-15T08:03:38;34.20;;;19.70;;
61358;SDS011;47228;46.762;23.598;2022-11-15T08:06:06;36.80;;;19.90;;
61358;SDS011;47228;46.762;23.598;2022-11-15T08:08:34;30.40;;;16.80;;
61358;SDS011;47228;46.762;23.598;2022-11-15T08:11:02;28.60;;;17.00;;
61358;SDS011;47228;46.762;23.598;2022-11-15T08:13:30;41.00;;;22.30;;
61358;SDS011;47228;46.762;23.598;2022-11-15T08:15:59;41.10;;;23.50;;
61358;SDS011;47228;46.762;23.598;2022-11-15T08:18:28;38.50;;;20.80;;
61358;SDS011;47228;46.762;23.598;2022-11-15T08:20:59;35.10;;;18.20;;
61358;SDS011;47228;46.762;23.598;2022-11-15T08:23:28;43.30;;;23.40;;
61358;SDS011;47228;46.762;23.598;2022-11-15T08:26:01;44.30;;;24.00;;
61358;SDS011;47228;46.762;23.598;2022-11-15T08:28:31;42.40;;;21.90;;
61358;SDS011;47228;46.762;23.598;2022-11-15T08:30:59;43.50;;;23.10;;
61358;SDS011;47228;46.762;23.598;2022-11-15T08:33:27;46.70;;;24.50;;
61358;SDS011;47228;46.762;23.598;2022-11-15T08:35:57;50.10;;;24.50;;
61358;SDS011;47228;46.762;23.598;2022-11-15T08:38:25;49.50;;;26.00;;
61358;SDS011;47228;46.762;23.598;2022-11-15T08:41:00;47.10;;;24.80;;
61358;SDS011;47228;46.762;23.598;2022-11-15T08:43:31;51.80;;;26.90;;
61358;SDS011;47228;46.762;23.598;2022-11-15T08:45:59;50.50;;;25.80;;
61358;SDS011;47228;46.762;23.598;2022-11-15T08:48:27;43.70;;;23.50;;
61358;SDS011;47228;46.762;23.598;2022-11-15T08:50:57;36.20;;;20.70;;
61358;SDS011;47228;46.762;23.598;2022-11-15T08:53:25;37.10;;;21.70;;
61358;SDS011;47228;46.762;23.598;2022-11-15T08:55:53;36.30;;;20.20;;
61358;SDS011;47228;46.762;23.598;2022-11-15T08:58:21;26.70;;;17.20;;
61358;SDS011;47228;46.762;23.598;2022-11-15T09:00:51;30.20;;;17.30;;
61358;SDS011;47228;46.762;23.598;2022-11-15T09:03:19;26.10;;;17.00;;
61358;SDS011;47228;46.762;23.598;2022-11-15T09:05:47;26.50;;;16.80;;
61358;SDS011;47228;46.762;23.598;2022-11-15T09:08:15;27.70;;;16.80;;
61358;SDS011;47228;46.762;23.598;2022-11-15T09:11:06;29.20;;;17.80;;
61358;SDS011;47228;46.762;23.598;2022-11-15T09:13:36;27.10;;;17.50;;
61358;SDS011;47228;46.762;23.598;2022-11-15T09:16:04;32.00;;;18.40;;
61358;SDS011;47228;46.762;23.598;2022-11-15T09:18:33;28.10;;;17.10;;
61358;SDS011;47228;46.762;23.598;2022-11-15T09:21:02;29.90;;;19.30;;
61358;SDS011;47228;46.762;23.598;2022-11-15T09:23:30;27.30;;;16.80;;
61358;SDS011;47228;46.762;23.598;2022-11-15T09:25:59;30.40;;;16.70;;
61358;SDS011;47228;46.762;23.598;2022-11-15T09:28:28;27.60;;;17.30;;
61358;SDS011;47228;46.762;23.598;2022-11-15T09:30:58;25.80;;;16.40;;
61358;SDS011;47228;46.762;23.598;2022-11-15T09:33:27;27.60;;;17.20;;
61358;SDS011;47228;46.762;23.598;2022-11-15T09:36:00;27.40;;;16.60;;
61358;SDS011;47228;46.762;23.598;2022-11-15T09:38:29;28.70;;;17.20;;
61358;SDS011;47228;46.762;23.598;2022-11-15T09:44:26;27.40;;;17.00;;
61358;SDS011;47228;46.762;23.598;2022-11-15T09:49:40;27.50;;;17.90;;
61358;SDS011;47228;46.762;23.598;2022-11-15T09:52:08;29.80;;;16.50;;
61358;SDS011;47228;46.762;23.598;2022-11-15T09:54:39;27.60;;;15.60;;
61358;SDS011;47228;46.762;23.598;2022-11-15T10:03:16;31.10;;;18.80;;
61358;SDS011;47228;46.762;23.598;2022-11-15T10:05:50;27.60;;;17.10;;
61358;SDS011;47228;46.762;23.598;2022-11-15T10:11:00;24.40;;;15.40;;
61358;SDS011;47228;46.762;23.598;2022-11-15T10:13:51;24.50;;;15.40;;
61358;SDS011;47228;46.762;23.598;2022-11-15T10:19:26;23.10;;;14.70;;
61358;SDS011;47228;46.762;23.598;2022-11-15T10:22:16;21.10;;;14.50;;
61358;SDS011;47228;46.762;23.598;2022-11-15T10:25:10;24.00;;;15.60;;
61358;SDS011;47228;46.762;23.598;2022-11-15T10:27:40;20.40;;;13.60;;
61358;SDS011;47228;46.762;23.598;2022-11-15T10:30:11;19.40;;;13.10;;
61358;SDS011;47228;46.762;23.598;2022-11-15T10:32:42;23.00;;;14.40;;
61358;SDS011;47228;46.762;23.598;2022-11-15T10:35:18;22.00;;;14.60;;
61358;SDS011;47228;46.762;23.598;2022-11-15T10:37:49;19.80;;;12.50;;
61358;SDS011;47228;46.762;23.598;2022-11-15T10:40:21;18.80;;;12.30;;
61358;SDS011;47228;46.762;23.598;2022-11-15T10:43:04;16.30;;;11.00;;
61358;SDS011;47228;46.762;23.598;2022-11-15T10:45:40;19.60;;;11.60;;
61358;SDS011;47228;46.762;23.598;2022-11-15T10:48:30;17.70;;;11.60;;
61358;SDS011;47228;46.762;23.598;2022-11-15T10:50:57;17.20;;;11.90;;
61358;SDS011;47228;46.762;23.598;2022-11-15T10:53:31;17.90;;;11.70;;
61358;SDS011;47228;46.762;23.598;2022-11-15T10:56:13;17.80;;;11.60;;
61358;SDS011;47228;46.762;23.598;2022-11-15T10:58:56;17.80;;;12.00;;
61358;SDS011;47228;46.762;23.598;2022-11-15T11:01:26;20.20;;;12.30;;
61358;SDS011;47228;46.762;23.598;2022-11-15T11:03:58;16.20;;;11.10;;
61358;SDS011;47228;46.762;23.598;2022-11-15T11:06:29;17.90;;;11.80;;
61358;SDS011;47228;46.762;23.598;2022-11-15T11:11:53;17.00;;;11.70;;
61358;SDS011;47228;46.762;23.598;2022-11-15T11:19:46;19.80;;;12.50;;
61358;SDS011;47228;46.762;23.598;2022-11-15T11:33:18;20.50;;;13.40;;
61358;SDS011;47228;46.762;23.598;2022-11-15T11:55:00;20.40;;;13.50;;
61358;SDS011;47228;46.762;23.598;2022-11-15T11:57:34;21.80;;;14.50;;
61358;SDS011;47228;46.762;23.598;2022-11-15T12:05:29;25.10;;;15.50;;
61358;SDS011;47228;46.762;23.598;2022-11-15T12:08:18;22.90;;;15.80;;
61358;SDS011;47228;46.762;23.598;2022-11-15T12:10:56;21.60;;;15.30;;
61358;SDS011;47228;46.762;23.598;2022-11-15T12:13:47;24.10;;;15.50;;
61358;SDS011;47228;46.762;23.598;2022-11-15T12:16:28;25.50;;;16.20;;
61358;SDS011;47228;46.762;23.598;2022-11-15T12:18:59;24.50;;;16.90;;
61358;SDS011;47228;46.762;23.598;2022-11-15T12:21:47;25.60;;;17.10;;
61358;SDS011;47228;46.762;23.598;2022-11-15T12:24:42;24.90;;;17.30;;
61358;SDS011;47228;46.762;23.598;2022-11-15T12:27:18;27.00;;;16.60;;
61358;SDS011;47228;46.762;23.598;2022-11-15T12:29:56;22.30;;;15.30;;
61358;SDS011;47228;46.762;23.598;2022-11-15T12:35:01;23.00;;;16.40;;
61358;SDS011;47228;46.762;23.598;2022-11-15T12:42:55;28.50;;;18.50;;
61358;SDS011;47228;46.762;23.598;2022-11-15T12:58:48;31.50;;;19.10;;
61358;SDS011;47228;46.762;23.598;2022-11-15T13:06:56;30.00;;;18.00;;
61358;SDS011;47228;46.762;23.598;2022-11-15T13:12:06;30.20;;;18.50;;
61358;SDS011;47228;46.762;23.598;2022-11-15T13:28:27;32.40;;;19.20;;
61358;SDS011;47228;46.762;23.598;2022-11-15T13:33:59;38.20;;;20.30;;
61358;SDS011;47228;46.762;23.598;2022-11-15T13:36:44;35.50;;;21.10;;
61358;SDS011;47228;46.762;23.598;2022-11-15T13:39:14;33.70;;;20.00;;
61358;SDS011;47228;46.762;23.598;2022-11-15T13:41:53;31.20;;;19.30;;
61358;SDS011;47228;46.762;23.598;2022-11-15T13:44:22;32.80;;;18.60;;
61358;SDS011;47228;46.762;23.598;2022-11-15T13:49:31;35.30;;;19.50;;
61358;SDS011;47228;46.762;23.598;2022-11-15T13:52:02;31.10;;;19.30;;
61358;SDS011;47228;46.762;23.598;2022-11-15T13:54:35;32.70;;;19.50;;
61358;SDS011;47228;46.762;23.598;2022-11-15T13:59:55;36.70;;;20.60;;
61358;SDS011;47228;46.762;23.598;2022-11-15T14:02:31;30.00;;;17.90;;
61358;SDS011;47228;46.762;23.598;2022-11-15T14:08:20;32.60;;;20.40;;
61358;SDS011;47228;46.762;23.598;2022-11-15T14:10:42;36.50;;;21.80;;
61358;SDS011;47228;46.762;23.598;2022-11-15T14:13:11;35.10;;;20.30;;
61358;SDS011;47228;46.762;23.598;2022-11-15T14:16:17;31.60;;;19.80;;
61358;SDS011;47228;46.762;23.598;2022-11-15T14:18:50;31.50;;;19.40;;
61358;SDS011;47228;46.762;23.598;2022-11-15T14:21:19;33.30;;;20.10;;
61358;SDS011;47228;46.762;23.598;2022-11-15T14:23:48;30.40;;;19.80;;
61358;SDS011;47228;46.762;23.598;2022-11-15T14:26:27;37.20;;;22.60;;
61358;SDS011;47228;46.762;23.598;2022-11-15T14:28:56;30.10;;;19.60;;
61358;SDS011;47228;46.762;23.598;2022-11-15T14:31:25;32.60;;;20.40;;
61358;SDS011;47228;46.762;23.598;2022-11-15T14:33:53;31.90;;;20.10;;
61358;SDS011;47228;46.762;23.598;2022-11-15T14:36:21;35.30;;;20.70;;
61358;SDS011;47228;46.762;23.598;2022-11-15T14:38:49;39.50;;;21.70;;
61358;SDS011;47228;46.762;23.598;2022-11-15T14:41:21;38.10;;;22.20;;
61358;SDS011;47228;46.762;23.598;2022-11-15T14:43:51;35.40;;;19.80;;
61358;SDS011;47228;46.762;23.598;2022-11-15T14:46:20;34.20;;;21.70;;
61358;SDS011;47228;46.762;23.598;2022-11-15T14:48:48;33.10;;;20.60;;
61358;SDS011;47228;46.762;23.598;2022-11-15T14:51:16;34.20;;;21.90;;
61358;SDS011;47228;46.762;23.598;2022-11-15T14:53:46;33.00;;;20.70;;
61358;SDS011;47228;46.762;23.598;2022-11-15T14:56:14;36.90;;;21.10;;
61358;SDS011;47228;46.762;23.598;2022-11-15T14:58:43;39.30;;;22.70;;
61358;SDS011;47228;46.762;23.598;2022-11-15T15:01:19;36.50;;;22.00;;
61358;SDS011;47228;46.762;23.598;2022-11-15T15:03:51;35.30;;;20.70;;
61358;SDS011;47228;46.762;23.598;2022-11-15T15:06:21;36.80;;;21.60;;
61358;SDS011;47228;46.762;23.598;2022-11-15T15:08:49;36.70;;;22.10;;
61358;SDS011;47228;46.762;23.598;2022-11-15T15:11:21;37.00;;;22.20;;
61358;SDS011;47228;46.762;23.598;2022-11-15T15:13:51;39.80;;;21.80;;
61358;SDS011;47228;46.762;23.598;2022-11-15T15:16:20;39.40;;;22.70;;
61358;SDS011;47228;46.762;23.598;2022-11-15T15:18:48;37.00;;;22.00;;
61358;SDS011;47228;46.762;23.598;2022-11-15T15:23:58;35.00;;;22.10;;
61358;SDS011;47228;46.762;23.598;2022-11-15T15:26:26;39.10;;;22.20;;
61358;SDS011;47228;46.762;23.598;2022-11-15T15:28:54;42.10;;;24.10;;
61358;SDS011;47228;46.762;23.598;2022-11-15T15:31:22;38.60;;;22.20;;
61358;SDS011;47228;46.762;23.598;2022-11-15T15:33:50;48.40;;;24.40;;
61358;SDS011;47228;46.762;23.598;2022-11-15T15:36:18;40.60;;;23.80;;
61358;SDS011;47228;46.762;23.598;2022-11-15T15:38:46;42.90;;;23.30;;
61358;SDS011;47228;46.762;23.598;2022-11-15T15:41:14;45.50;;;25.20;;
61358;SDS011;47228;46.762;23.598;2022-11-15T15:43:44;42.60;;;24.50;;
61358;SDS011;47228;46.762;23.598;2022-11-15T15:46:14;41.00;;;24.20;;
61358;SDS011;47228;46.762;23.598;2022-11-15T15:48:43;42.60;;;25.20;;
61358;SDS011;47228;46.762;23.598;2022-11-15T15:51:12;42.00;;;23.70;;
61358;SDS011;47228;46.762;23.598;2022-11-15T15:53:47;36.60;;;23.20;;
61358;SDS011;47228;46.762;23.598;2022-11-15T15:56:15;45.40;;;25.00;;
61358;SDS011;47228;46.762;23.598;2022-11-15T15:58:43;46.50;;;24.30;;
61358;SDS011;47228;46.762;23.598;2022-11-15T16:01:11;45.90;;;26.20;;
61358;SDS011;47228;46.762;23.598;2022-11-15T16:03:39;42.50;;;24.70;;
61358;SDS011;47228;46.762;23.598;2022-11-15T16:06:25;45.30;;;25.10;;
61358;SDS011;47228;46.762;23.598;2022-11-15T16:09:08;45.80;;;24.00;;
61358;SDS011;47228;46.762;23.598;2022-11-15T16:11:44;47.00;;;26.20;;
61358;SDS011;47228;46.762;23.598;2022-11-15T16:14:13;43.80;;;26.10;;
61358;SDS011;47228;46.762;23.598;2022-11-15T16:16:41;48.90;;;26.70;;
61358;SDS011;47228;46.762;23.598;2022-11-15T16:19:09;59.50;;;27.00;;
61358;SDS011;47228;46.762;23.598;2022-11-15T16:21:39;48.20;;;27.50;;
61358;SDS011;47228;46.762;23.598;2022-11-15T16:24:06;38.80;;;24.30;;
61358;SDS011;47228;46.762;23.598;2022-11-15T16:26:34;36.20;;;21.90;;
61358;SDS011;47228;46.762;23.598;2022-11-15T16:29:04;40.80;;;23.50;;
61358;SDS011;47228;46.762;23.598;2022-11-15T16:31:34;38.50;;;22.90;;
61358;SDS011;47228;46.762;23.598;2022-11-15T16:34:02;38.90;;;23.30;;
61358;SDS011;47228;46.762;23.598;2022-11-15T16:36:31;35.20;;;21.60;;
61358;SDS011;47228;46.762;23.598;2022-11-15T16:39:01;34.80;;;22.50;;
61358;SDS011;47228;46.762;23.598;2022-11-15T16:41:33;35.80;;;20.80;;
61358;SDS011;47228;46.762;23.598;2022-11-15T16:44:02;35.10;;;22.40;;
61358;SDS011;47228;46.762;23.598;2022-11-15T16:46:29;31.60;;;19.60;;
61358;SDS011;47228;46.762;23.598;2022-11-15T16:48:57;31.90;;;20.80;;
61358;SDS011;47228;46.762;23.598;2022-11-15T16:51:25;34.50;;;21.70;;
61358;SDS011;47228;46.762;23.598;2022-11-15T16:53:53;38.50;;;21.80;;
61358;SDS011;47228;46.762;23.598;2022-11-15T16:56:23;38.80;;;23.50;;
61358;SDS011;47228;46.762;23.598;2022-11-15T17:01:32;41.70;;;24.10;;
61358;SDS011;47228;46.762;23.598;2022-11-15T17:04:02;41.90;;;23.90;;
61358;SDS011;47228;46.762;23.598;2022-11-15T17:06:39;41.80;;;24.60;;
61358;SDS011;47228;46.762;23.598;2022-11-15T17:09:19;40.20;;;24.10;;
61358;SDS011;47228;46.762;23.598;2022-11-15T17:11:51;43.00;;;24.00;;
61358;SDS011;47228;46.762;23.598;2022-11-15T17:14:20;48.30;;;26.30;;
61358;SDS011;47228;46.762;23.598;2022-11-15T17:16:48;48.40;;;26.10;;
61358;SDS011;47228;46.762;23.598;2022-11-15T17:19:17;43.70;;;25.70;;
61358;SDS011;47228;46.762;23.598;2022-11-15T17:21:47;45.80;;;24.80;;